createdAt,value
2022-09-27T00:00:37.600Z,100.00
2022-09-27T00:02:45.601Z,100.00
2022-09-27T00:04:56.333Z,100.00
2022-09-27T00:07:04.328Z,100.00
2022-09-27T00:09:13.445Z,100.00
2022-09-27T00:11:29.451Z,100.00
2022-09-27T00:13:37.550Z,100.00
2022-09-27T00:15:45.415Z,100.00
2022-09-27T00:17:53.828Z,100.00
2022-09-27T00:20:05.648Z,100.00
2022-09-27T00:22:13.538Z,100.00
2022-09-27T00:24:24.822Z,100.00
2022-09-27T00:26:32.952Z,100.00
2022-09-27T00:28:40.830Z,100.00
2022-09-27T00:30:48.775Z,100.00
2022-09-27T00:32:58.542Z,100.00
2022-09-27T00:35:09.339Z,100.00
2022-09-27T00:37:20.330Z,100.00
2022-09-27T00:39:28.717Z,100.00
2022-09-27T00:41:38.684Z,100.00
2022-09-27T00:43:50.916Z,100.00
2022-09-27T00:46:03.761Z,100.00
2022-09-27T00:48:18.866Z,100.00
2022-09-27T00:50:32.785Z,100.00
2022-09-27T00:52:48.898Z,100.00
2022-09-27T00:55:03.239Z,100.00
2022-09-27T00:57:12.270Z,100.00
2022-09-27T00:59:26.992Z,100.00
2022-09-27T01:01:35.115Z,100.00
2022-09-27T01:03:48.947Z,100.00
2022-09-27T01:06:01.450Z,100.00
2022-09-27T01:08:10.263Z,100.00
2022-09-27T01:10:19.212Z,100.00
2022-09-27T01:12:34.676Z,100.00
2022-09-27T01:15:03.483Z,100.00
2022-09-27T01:17:29.406Z,100.00
2022-09-27T01:20:00.050Z,100.00
2022-09-27T01:22:17.875Z,100.00
2022-09-27T01:24:43.933Z,100.00
2022-09-27T01:27:24.555Z,100.00
2022-09-27T01:29:42.893Z,100.00
2022-09-27T01:32:05.853Z,100.00
2022-09-27T01:34:21.196Z,100.00
2022-09-27T01:36:37.597Z,100.00
2022-09-27T01:38:56.414Z,100.00
2022-09-27T01:41:10.747Z,100.00
2022-09-27T01:43:39.477Z,100.00
2022-09-27T01:45:55.046Z,100.00
2022-09-27T01:48:26.673Z,100.00
2022-09-27T01:50:42.299Z,100.00
2022-09-27T01:52:54.115Z,100.00
2022-09-27T01:55:08.434Z,100.00
2022-09-27T01:57:49.207Z,100.00
2022-09-27T02:00:08.024Z,100.00
2022-09-27T02:02:26.233Z,100.00
2022-09-27T02:05:18.060Z,100.00
2022-09-27T02:07:36.292Z,100.00
2022-09-27T02:09:51.221Z,100.00
2022-09-27T02:12:08.481Z,100.00
2022-09-27T02:14:22.587Z,100.00
2022-09-27T02:16:47.721Z,100.00
2022-09-27T02:19:05.415Z,100.00
2022-09-27T02:21:21.129Z,100.00
2022-09-27T02:23:37.937Z,100.00
2022-09-27T02:25:57.165Z,100.00
2022-09-27T02:28:12.953Z,100.00
2022-09-27T02:30:23.126Z,100.00
2022-09-27T02:32:39.108Z,100.00
2022-09-27T02:34:49.823Z,100.00
2022-09-27T02:37:00.446Z,100.00
2022-09-27T02:39:10.119Z,100.00
2022-09-27T02:41:18.798Z,100.00
2022-09-27T02:43:31.977Z,100.00
2022-09-27T02:45:54.957Z,100.00
2022-09-27T02:48:14.547Z,100.00
2022-09-27T02:50:52.063Z,100.00
2022-09-27T02:53:18.518Z,100.00
2022-09-27T02:55:44.371Z,100.00
2022-09-27T02:58:30.279Z,100.00
2022-09-27T03:01:06.154Z,100.00
2022-09-27T03:03:53.561Z,100.00
2022-09-27T03:06:07.187Z,100.00
2022-09-27T03:08:20.190Z,100.00
2022-09-27T03:10:32.871Z,100.00
2022-09-27T03:12:41.664Z,100.00
2022-09-27T03:14:49.635Z,100.00
2022-09-27T03:17:17.742Z,100.00
2022-09-27T03:19:44.195Z,100.00
2022-09-27T03:22:11.777Z,100.00
2022-09-27T03:24:22.299Z,100.00
2022-09-27T03:26:32.049Z,100.00
2022-09-27T03:28:39.902Z,100.00
2022-09-27T03:30:48.976Z,100.00
2022-09-27T03:33:19.934Z,100.00
2022-09-27T03:35:31.576Z,100.00
2022-09-27T03:37:39.690Z,100.00
2022-09-27T03:39:50.717Z,100.00
2022-09-27T03:41:58.616Z,100.00
2022-09-27T03:44:06.521Z,100.00
2022-09-27T03:46:14.497Z,100.00
2022-09-27T03:48:27.759Z,100.00
2022-09-27T03:50:36.315Z,100.00
2022-09-27T03:52:46.204Z,100.00
2022-09-27T03:55:01.860Z,100.00
2022-09-27T03:57:11.728Z,100.00
2022-09-27T03:59:21.133Z,100.00
2022-09-27T04:02:04.082Z,100.00
2022-09-27T04:04:33.485Z,100.00
2022-09-27T04:06:41.391Z,100.00
2022-09-27T04:08:50.370Z,100.00
2022-09-27T04:11:01.254Z,100.00
2022-09-27T04:13:09.932Z,100.00
2022-09-27T04:15:28.544Z,100.00
2022-09-27T04:17:55.159Z,100.00
2022-09-27T04:20:14.873Z,100.00
2022-09-27T04:22:24.562Z,100.00
2022-09-27T04:24:33.026Z,100.00
2022-09-27T04:27:03.449Z,100.00
2022-09-27T04:29:12.236Z,100.00
2022-09-27T04:31:29.904Z,100.00
2022-09-27T04:33:49.939Z,100.00
2022-09-27T04:36:15.966Z,100.00
2022-09-27T04:38:39.808Z,100.00
2022-09-27T04:40:49.302Z,100.00
2022-09-27T04:43:00.257Z,100.00
2022-09-27T04:45:09.553Z,100.00
2022-09-27T04:47:18.511Z,100.00
2022-09-27T04:49:26.627Z,100.00
2022-09-27T04:51:34.514Z,100.00
2022-09-27T04:53:42.494Z,100.00
2022-09-27T04:55:50.595Z,100.00
2022-09-27T04:58:01.782Z,100.00
2022-09-27T05:00:12.543Z,100.00
2022-09-27T05:02:20.959Z,100.00
2022-09-27T05:05:00.595Z,100.00
2022-09-27T05:07:15.510Z,100.00
2022-09-27T05:09:28.502Z,100.00
2022-09-27T05:11:38.946Z,100.00
2022-09-27T05:14:09.572Z,100.00
2022-09-27T05:16:33.961Z,100.00
2022-09-27T05:19:17.375Z,100.00
2022-09-27T05:21:44.013Z,100.00
2022-09-27T05:24:02.271Z,100.00
2022-09-27T05:26:11.980Z,100.00
2022-09-27T05:28:20.022Z,100.00
2022-09-27T05:30:30.669Z,100.00
2022-09-27T05:32:54.772Z,100.00
2022-09-27T05:35:21.312Z,100.00
2022-09-27T05:37:30.117Z,100.00
2022-09-27T05:39:38.463Z,100.00
2022-09-27T05:41:46.520Z,100.00
2022-09-27T05:43:54.720Z,100.00
2022-09-27T05:46:05.592Z,100.00
2022-09-27T05:48:14.949Z,100.00
2022-09-27T05:50:42.480Z,100.00
2022-09-27T05:52:50.908Z,100.00
2022-09-27T05:55:00.642Z,100.00
2022-09-27T05:57:08.823Z,100.00
2022-09-27T05:59:28.562Z,100.00
2022-09-27T06:02:02.139Z,100.00
2022-09-27T06:04:30.066Z,100.00
2022-09-27T06:06:59.138Z,100.00
2022-09-27T06:09:07.217Z,100.00
2022-09-27T06:11:15.773Z,100.00
2022-09-27T06:13:24.015Z,100.00
2022-09-27T06:15:34.572Z,100.00
2022-09-27T06:17:46.035Z,100.00
2022-09-27T06:19:59.685Z,100.00
2022-09-27T06:22:07.756Z,100.00
2022-09-27T06:24:29.794Z,100.00
2022-09-27T06:26:40.694Z,100.00
2022-09-27T06:29:07.948Z,100.00
2022-09-27T06:31:16.907Z,100.00
2022-09-27T06:33:46.092Z,100.00
2022-09-27T06:35:54.991Z,100.00
2022-09-27T06:38:07.196Z,100.00
2022-09-27T06:40:15.806Z,100.00
2022-09-27T06:42:42.137Z,100.00
2022-09-27T06:44:59.017Z,100.00
2022-09-27T06:47:16.053Z,100.00
2022-09-27T06:49:52.456Z,100.00
2022-09-27T06:52:02.271Z,100.00
2022-09-27T06:54:10.409Z,100.00
2022-09-27T06:56:18.452Z,100.00
2022-09-27T06:58:42.692Z,100.00
2022-09-27T07:01:22.422Z,100.00
2022-09-27T07:03:53.230Z,100.00
2022-09-27T07:06:25.951Z,100.00
2022-09-27T07:08:40.175Z,100.00
2022-09-27T07:10:48.116Z,100.00
2022-09-27T07:12:56.765Z,100.00
2022-09-27T07:15:09.431Z,100.00
2022-09-27T07:17:17.572Z,100.00
2022-09-27T07:19:28.498Z,99.41
2022-09-27T07:21:39.841Z,99.37
2022-09-27T07:23:47.970Z,98.89
2022-09-27T07:25:56.537Z,99.17
2022-09-27T07:28:05.498Z,97.46
2022-09-27T07:30:15.160Z,96.09
2022-09-27T07:32:24.616Z,95.91
2022-09-27T07:34:38.107Z,95.57
2022-09-27T07:36:48.787Z,95.38
2022-09-27T07:38:59.385Z,93.90
2022-09-27T07:41:13.341Z,92.95
2022-09-27T07:43:22.351Z,91.94
2022-09-27T07:45:31.515Z,93.14
2022-09-27T07:47:50.708Z,94.15
2022-09-27T07:50:35.201Z,93.54
2022-09-27T07:53:05.099Z,93.55
2022-09-27T07:55:31.771Z,94.45
2022-09-27T07:58:07.305Z,94.64
2022-09-27T08:00:17.772Z,94.78
2022-09-27T08:02:27.461Z,92.00
2022-09-27T08:04:36.034Z,91.13
2022-09-27T08:06:43.961Z,91.31
2022-09-27T08:08:55.751Z,90.60
2022-09-27T08:11:03.696Z,90.49
2022-09-27T08:13:12.738Z,90.33
2022-09-27T08:15:21.566Z,89.58
2022-09-27T08:17:30.596Z,89.20
2022-09-27T08:19:58.872Z,87.92
2022-09-27T08:22:17.623Z,87.78
2022-09-27T08:24:37.091Z,87.72
2022-09-27T08:27:23.470Z,86.75
2022-09-27T08:29:42.010Z,86.88
2022-09-27T08:31:50.062Z,87.00
2022-09-27T08:34:00.833Z,85.02
2022-09-27T08:36:14.100Z,83.08
2022-09-27T08:38:22.886Z,81.93
2022-09-27T08:40:41.015Z,79.98
2022-09-27T08:42:54.800Z,80.73
2022-09-27T08:45:11.303Z,78.94
2022-09-27T08:47:25.997Z,79.02
2022-09-27T08:49:41.933Z,78.67
2022-09-27T08:51:55.815Z,79.72
2022-09-27T08:54:08.881Z,80.81
2022-09-27T08:56:21.654Z,81.85
2022-09-27T08:58:33.841Z,79.96
2022-09-27T09:00:43.749Z,82.00
2022-09-27T09:02:52.401Z,82.66
2022-09-27T09:05:05.905Z,86.46
2022-09-27T09:07:30.061Z,89.00
2022-09-27T09:09:47.662Z,89.24
2022-09-27T09:12:29.125Z,88.23
2022-09-27T09:15:04.007Z,86.22
2022-09-27T09:17:24.135Z,81.42
2022-09-27T09:20:17.174Z,77.00
2022-09-27T09:23:00.292Z,71.90
2022-09-27T09:25:24.508Z,66.71
2022-09-27T09:27:44.161Z,60.66
2022-09-27T09:30:16.602Z,56.95
2022-09-27T09:32:39.483Z,50.81
2022-09-27T09:34:52.017Z,50.91
2022-09-27T09:37:05.193Z,53.58
2022-09-27T09:39:17.907Z,49.43
2022-09-27T09:41:31.694Z,49.41
2022-09-27T09:43:48.241Z,50.16
2022-09-27T09:46:03.592Z,51.38
2022-09-27T09:48:22.849Z,55.20
2022-09-27T09:50:33.681Z,54.83
2022-09-27T09:52:46.869Z,59.01
2022-09-27T09:55:01.226Z,60.65
2022-09-27T09:57:18.555Z,61.12
2022-09-27T09:59:35.663Z,59.71
2022-09-27T10:01:48.528Z,60.71
2022-09-27T10:03:57.866Z,59.25
2022-09-27T10:06:05.934Z,60.57
2022-09-27T10:08:21.199Z,61.14
2022-09-27T10:10:37.361Z,58.43
2022-09-27T10:13:07.785Z,54.13
2022-09-27T10:15:23.819Z,52.14
2022-09-27T10:17:39.871Z,52.69
2022-09-27T10:19:52.784Z,50.49
2022-09-27T10:22:04.898Z,50.20
2022-09-27T10:24:18.152Z,50.93
2022-09-27T10:26:52.117Z,53.34
2022-09-27T10:29:00.489Z,50.32
2022-09-27T10:31:24.523Z,49.76
2022-09-27T10:33:56.702Z,51.99
2022-09-27T10:36:07.025Z,55.09
2022-09-27T10:38:30.423Z,56.24
2022-09-27T10:40:48.775Z,57.54
2022-09-27T10:42:59.141Z,60.39
2022-09-27T10:45:32.902Z,60.64
2022-09-27T10:47:50.752Z,63.02
2022-09-27T10:50:46.018Z,63.99
2022-09-27T10:53:07.862Z,64.28
2022-09-27T10:55:25.499Z,64.94
2022-09-27T10:57:35.921Z,65.78
2022-09-27T10:59:46.942Z,64.62
2022-09-27T11:01:55.143Z,63.13
2022-09-27T11:04:25.735Z,63.88
2022-09-27T11:06:38.292Z,64.01
2022-09-27T11:08:50.507Z,65.09
2022-09-27T11:11:09.406Z,63.77
2022-09-27T11:13:20.225Z,62.76
2022-09-27T11:15:34.029Z,62.45
2022-09-27T11:17:49.198Z,62.39
2022-09-27T11:20:18.791Z,64.01
2022-09-27T11:22:41.773Z,63.34
2022-09-27T11:25:07.520Z,61.73
2022-09-27T11:27:27.876Z,62.68
2022-09-27T11:29:47.448Z,62.34
2022-09-27T11:32:37.916Z,62.08
2022-09-27T11:35:10.935Z,61.85
2022-09-27T11:37:32.206Z,62.79
2022-09-27T11:39:56.286Z,62.51
2022-09-27T11:42:23.988Z,60.50
2022-09-27T11:45:19.858Z,61.74
2022-09-27T11:47:34.126Z,62.23
2022-09-27T11:50:01.544Z,63.25
2022-09-27T11:52:31.587Z,65.19
2022-09-27T11:54:56.666Z,68.36
2022-09-27T11:57:12.859Z,67.32
2022-09-27T12:00:02.878Z,69.39
2022-09-27T12:02:33.188Z,68.81
2022-09-27T12:04:54.547Z,67.82
2022-09-27T12:07:10.794Z,67.66
2022-09-27T12:09:25.844Z,68.00
2022-09-27T12:11:40.436Z,66.98
2022-09-27T12:13:54.973Z,66.53
2022-09-27T12:16:04.039Z,65.42
2022-09-27T12:18:29.506Z,64.86
2022-09-27T12:20:40.595Z,66.61
2022-09-27T12:22:59.459Z,68.52
2022-09-27T12:25:40.278Z,70.15
2022-09-27T12:28:07.229Z,71.23
2022-09-27T12:30:16.774Z,73.19
2022-09-27T12:32:30.678Z,72.71
2022-09-27T12:34:42.989Z,74.13
2022-09-27T12:36:56.155Z,73.59
2022-09-27T12:39:12.313Z,73.66
2022-09-27T12:41:28.547Z,73.73
2022-09-27T12:43:54.068Z,73.72
2022-09-27T12:46:19.366Z,76.53
2022-09-27T12:48:38.803Z,76.91
2022-09-27T12:50:55.901Z,78.56
2022-09-27T12:53:11.099Z,80.05
2022-09-27T12:55:50.239Z,80.94
2022-09-27T12:58:33.355Z,81.66
2022-09-27T13:00:47.037Z,84.47
2022-09-27T13:03:32.537Z,84.49
2022-09-27T13:06:11.427Z,83.62
2022-09-27T13:08:33.531Z,84.40
2022-09-27T13:10:49.169Z,84.16
2022-09-27T13:13:17.000Z,85.29
2022-09-27T13:15:30.416Z,83.63
2022-09-27T13:17:55.907Z,85.01
2022-09-27T13:20:52.910Z,81.63
2022-09-27T13:24:03.755Z,80.67
2022-09-27T13:26:44.855Z,81.88
2022-09-27T13:29:05.428Z,83.19
2022-09-27T13:31:18.966Z,84.63
2022-09-27T13:33:37.511Z,84.05
2022-09-27T13:36:05.523Z,84.58
2022-09-27T13:38:25.305Z,83.79
2022-09-27T13:40:36.830Z,84.08
2022-09-27T13:43:28.346Z,83.96
2022-09-27T13:45:52.136Z,84.65
2022-09-27T13:48:02.096Z,85.12
2022-09-27T13:50:23.788Z,84.12
2022-09-27T13:52:40.479Z,83.88
2022-09-27T13:54:58.315Z,84.19
2022-09-27T13:57:52.076Z,85.03
2022-09-27T14:00:08.847Z,86.00
2022-09-27T14:02:42.690Z,86.44
2022-09-27T14:04:53.046Z,85.46
2022-09-27T14:07:03.308Z,83.30
2022-09-27T14:09:21.056Z,81.20
2022-09-27T14:11:43.284Z,79.68
2022-09-27T14:13:55.106Z,81.67
2022-09-27T14:16:07.546Z,81.28
2022-09-27T14:18:21.591Z,83.48
2022-09-27T14:20:35.315Z,82.68
2022-09-27T14:22:44.899Z,80.25
2022-09-27T14:24:54.050Z,83.88
2022-09-27T14:27:19.120Z,88.10
2022-09-27T14:29:28.771Z,89.58
2022-09-27T14:31:37.396Z,90.21
2022-09-27T14:33:50.811Z,93.60
2022-09-27T14:36:11.102Z,94.66
2022-09-27T14:38:37.745Z,95.74
2022-09-27T14:41:01.331Z,96.21
2022-09-27T14:43:09.588Z,96.23
2022-09-27T14:45:23.734Z,95.49
2022-09-27T14:47:31.847Z,94.93
2022-09-27T14:49:51.785Z,95.71
2022-09-27T14:51:59.772Z,95.92
2022-09-27T14:54:11.450Z,94.76
2022-09-27T14:56:22.734Z,94.62
2022-09-27T14:58:46.651Z,94.75
2022-09-27T15:00:56.234Z,94.16
2022-09-27T15:03:09.116Z,93.91
2022-09-27T15:05:23.109Z,92.58
2022-09-27T15:07:30.983Z,91.60
2022-09-27T15:09:38.992Z,90.11
2022-09-27T15:11:51.634Z,89.76
2022-09-27T15:14:01.925Z,86.62
2022-09-27T15:16:16.466Z,85.94
2022-09-27T15:18:37.110Z,87.47
2022-09-27T15:20:56.652Z,86.61
2022-09-27T15:23:07.689Z,87.06
2022-09-27T15:25:23.619Z,88.44
2022-09-27T15:27:31.611Z,88.54
2022-09-27T15:29:39.390Z,78.53
2022-09-27T15:31:47.355Z,76.73
2022-09-27T15:33:57.626Z,73.99
2022-09-27T15:36:12.249Z,73.67
2022-09-27T15:38:31.100Z,70.84
2022-09-27T15:41:01.102Z,72.34
2022-09-27T15:43:21.199Z,71.82
2022-09-27T15:45:33.878Z,73.84
2022-09-27T15:47:52.850Z,74.41
2022-09-27T15:50:01.040Z,72.88
2022-09-27T15:52:43.359Z,74.26
2022-09-27T15:54:52.643Z,74.40
2022-09-27T15:57:04.615Z,73.00
2022-09-27T15:59:20.741Z,73.55
2022-09-27T16:01:28.514Z,73.92
2022-09-27T16:03:36.554Z,74.14
2022-09-27T16:05:44.341Z,73.68
2022-09-27T16:07:54.764Z,73.44
2022-09-27T16:10:02.532Z,73.97
2022-09-27T16:12:10.254Z,74.09
2022-09-27T16:14:22.223Z,73.33
2022-09-27T16:16:30.149Z,71.81
2022-09-27T16:18:37.924Z,72.87
2022-09-27T16:20:46.052Z,71.98
2022-09-27T16:22:57.784Z,71.04
2022-09-27T16:25:05.626Z,72.49
2022-09-27T16:27:13.482Z,72.97
2022-09-27T16:29:21.216Z,73.40
2022-09-27T16:31:29.002Z,72.70
2022-09-27T16:33:37.365Z,74.62
2022-09-27T16:35:45.269Z,74.53
2022-09-27T16:37:53.211Z,75.04
2022-09-27T16:40:04.204Z,75.34
2022-09-27T16:42:12.175Z,75.91
2022-09-27T16:44:19.966Z,73.96
2022-09-27T16:46:27.896Z,74.13
2022-09-27T16:48:35.726Z,74.23
2022-09-27T16:50:55.921Z,74.16
2022-09-27T16:53:05.334Z,74.44
2022-09-27T16:55:18.649Z,74.11
2022-09-27T16:57:26.997Z,73.80
2022-09-27T16:59:35.142Z,73.38
2022-09-27T17:01:42.978Z,73.90
2022-09-27T17:03:56.860Z,74.37
2022-09-27T17:06:06.386Z,74.12
2022-09-27T17:08:14.267Z,73.81
2022-09-27T17:10:25.865Z,75.14
2022-09-27T17:12:34.753Z,75.85
2022-09-27T17:14:42.868Z,75.89
2022-09-27T17:16:52.668Z,76.53
2022-09-27T17:19:00.520Z,76.78
2022-09-27T17:21:11.060Z,78.01
2022-09-27T17:23:18.855Z,77.79
2022-09-27T17:25:29.285Z,77.32
2022-09-27T17:27:37.061Z,77.87
2022-09-27T17:29:44.823Z,78.52
2022-09-27T17:31:52.628Z,78.18
2022-09-27T17:34:00.669Z,79.24
2022-09-27T17:36:09.089Z,78.88
2022-09-27T17:38:16.814Z,79.41
2022-09-27T17:40:24.567Z,79.26
2022-09-27T17:42:35.546Z,79.34
2022-09-27T17:44:43.331Z,79.40
2022-09-27T17:47:11.486Z,79.82
2022-09-27T17:49:31.639Z,80.16
2022-09-27T17:51:43.033Z,80.53
2022-09-27T17:53:51.084Z,79.85
2022-09-27T17:56:04.049Z,80.80
2022-09-27T17:58:14.885Z,80.96
2022-09-27T18:00:23.202Z,83.10
2022-09-27T18:02:31.487Z,85.86
2022-09-27T18:04:39.334Z,87.30
2022-09-27T18:06:48.483Z,88.33
2022-09-27T18:08:57.121Z,90.22
2022-09-27T18:11:10.073Z,90.95
2022-09-27T18:13:21.649Z,92.24
2022-09-27T18:15:29.728Z,93.59
2022-09-27T18:17:37.559Z,94.86
2022-09-27T18:19:45.438Z,95.58
2022-09-27T18:21:53.966Z,96.94
2022-09-27T18:24:06.378Z,97.79
2022-09-27T18:26:15.995Z,98.07
2022-09-27T18:28:28.627Z,99.09
2022-09-27T18:30:36.461Z,99.79
2022-09-27T18:32:44.305Z,100.00
2022-09-27T18:34:52.096Z,100.00
2022-09-27T18:37:00.110Z,100.00
2022-09-27T18:39:10.336Z,100.00
2022-09-27T18:41:20.407Z,100.00
2022-09-27T18:43:35.396Z,100.00
2022-09-27T18:45:46.430Z,100.00
2022-09-27T18:47:54.156Z,100.00
2022-09-27T18:50:04.805Z,100.00
2022-09-27T18:52:12.847Z,100.00
2022-09-27T18:54:25.538Z,100.00
2022-09-27T18:56:39.141Z,100.00
2022-09-27T18:58:50.274Z,100.00
2022-09-27T19:01:01.326Z,100.00
2022-09-27T19:03:09.179Z,100.00
2022-09-27T19:05:17.029Z,100.00
2022-09-27T19:07:24.846Z,100.00
2022-09-27T19:09:32.650Z,100.00
2022-09-27T19:11:40.790Z,100.00
2022-09-27T19:13:54.894Z,100.00
2022-09-27T19:16:03.847Z,100.00
2022-09-27T19:18:12.130Z,100.00
2022-09-27T19:20:20.194Z,100.00
2022-09-27T19:22:28.799Z,100.00
2022-09-27T19:24:36.676Z,100.00
2022-09-27T19:26:44.608Z,100.00
2022-09-27T19:28:56.691Z,100.00
2022-09-27T19:31:08.934Z,100.00
2022-09-27T19:33:19.195Z,100.00
2022-09-27T19:35:27.057Z,100.00
2022-09-27T19:37:34.918Z,100.00
2022-09-27T19:39:42.704Z,100.00
2022-09-27T19:41:54.228Z,100.00
2022-09-27T19:44:19.295Z,100.00
2022-09-27T19:49:20.592Z,100.00
2022-09-27T19:51:31.095Z,100.00
2022-09-27T19:53:53.682Z,100.00
2022-09-27T19:56:12.935Z,100.00
2022-09-27T19:58:21.146Z,100.00
2022-09-27T20:00:35.152Z,100.00
2022-09-27T20:02:43.384Z,100.00
2022-09-27T20:04:51.320Z,100.00
2022-09-27T20:06:59.114Z,100.00
2022-09-27T20:09:07.502Z,100.00
2022-09-27T20:11:18.314Z,100.00
2022-09-27T20:13:27.227Z,100.00
2022-09-27T20:15:37.623Z,100.00
2022-09-27T20:17:45.403Z,100.00
2022-09-27T20:19:53.312Z,100.00
2022-09-27T20:22:03.366Z,100.00
2022-09-27T20:24:11.524Z,100.00
2022-09-27T20:26:22.774Z,100.00
2022-09-27T20:28:30.695Z,100.00
2022-09-27T20:30:41.071Z,100.00
2022-09-27T20:33:08.996Z,100.00
2022-09-27T20:35:17.790Z,100.00
2022-09-27T20:37:25.611Z,100.00
2022-09-27T20:39:33.359Z,100.00
2022-09-27T20:41:42.850Z,100.00
2022-09-27T20:43:51.936Z,100.00
2022-09-27T20:46:06.067Z,100.00
2022-09-27T20:48:14.164Z,100.00
2022-09-27T20:50:21.861Z,100.00
2022-09-27T20:52:29.614Z,100.00
2022-09-27T20:54:37.447Z,100.00
2022-09-27T20:56:47.089Z,100.00
2022-09-27T20:58:56.937Z,100.00
2022-09-27T21:01:12.309Z,100.00
2022-09-27T21:03:21.923Z,100.00
2022-09-27T21:05:29.943Z,100.00
2022-09-27T21:07:38.429Z,100.00
2022-09-27T21:09:46.147Z,100.00
2022-09-27T21:11:54.436Z,100.00
2022-09-27T21:14:02.157Z,100.00
2022-09-27T21:16:15.085Z,100.00
2022-09-27T21:18:22.861Z,100.00
2022-09-27T21:20:32.943Z,100.00
2022-09-27T21:22:40.613Z,100.00
2022-09-27T21:24:52.028Z,100.00
2022-09-27T21:27:03.184Z,100.00
2022-09-27T21:29:12.216Z,100.00
2022-09-27T21:31:23.901Z,100.00
2022-09-27T21:33:31.673Z,100.00
2022-09-27T21:35:41.539Z,100.00
2022-09-27T21:37:50.876Z,100.00
2022-09-27T21:39:58.585Z,100.00
2022-09-27T21:42:06.586Z,100.00
2022-09-27T21:44:14.562Z,100.00
2022-09-27T21:46:26.867Z,100.00
2022-09-27T21:48:35.653Z,100.00
2022-09-27T21:50:43.377Z,100.00
2022-09-27T21:52:54.097Z,100.00
2022-09-27T21:55:06.242Z,100.00
2022-09-27T21:57:13.934Z,100.00
2022-09-27T21:59:21.678Z,100.00
2022-09-27T22:01:33.828Z,100.00
2022-09-27T22:03:43.523Z,100.00
2022-09-27T22:05:53.235Z,100.00
2022-09-27T22:08:00.981Z,100.00
2022-09-27T22:10:09.926Z,100.00
2022-09-27T22:12:17.691Z,100.00
2022-09-27T22:14:25.828Z,100.00
2022-09-27T22:16:36.507Z,100.00
2022-09-27T22:18:47.357Z,100.00
2022-09-27T22:20:55.213Z,100.00
2022-09-27T22:23:03.990Z,100.00
2022-09-27T22:25:12.253Z,100.00
2022-09-27T22:27:20.094Z,100.00
2022-09-27T22:29:27.869Z,100.00
2022-09-27T22:31:39.086Z,100.00
2022-09-27T22:33:51.737Z,100.00
2022-09-27T22:35:59.527Z,100.00
2022-09-27T22:38:07.297Z,100.00
2022-09-27T22:40:15.377Z,100.00
2022-09-27T22:42:23.350Z,100.00
2022-09-27T22:44:33.474Z,100.00
2022-09-27T22:46:44.211Z,100.00
2022-09-27T22:48:52.469Z,100.00
2022-09-27T22:51:01.063Z,100.00
2022-09-27T22:53:08.823Z,100.00
2022-09-27T22:55:16.578Z,100.00
2022-09-27T22:57:26.051Z,100.00
2022-09-27T22:59:33.883Z,100.00
2022-09-27T23:01:44.164Z,100.00
2022-09-27T23:03:53.754Z,100.00
2022-09-27T23:30:31.844Z,100.00
2022-09-27T23:46:06.005Z,100.00
2022-09-27T23:48:14.088Z,100.00
2022-09-27T23:50:22.175Z,100.00
2022-09-27T23:52:30.748Z,100.00
2022-09-27T23:54:38.658Z,100.00
2022-09-27T23:56:49.497Z,100.00
2022-09-27T23:58:57.681Z,100.00
